Time;durP1;ratioP1;P1;durP2;ratioP2;P2;SDS_P1;SDS_P2;PMS_P1;PMS_P2;Temp;Humidity;BMP_temperature;BMP_pressure;BME280_temperature;BME280_humidity;BME280_pressure;Samples;Min_cycle;Max_cycle;Signal;HPM_P1;HPM_P2
2023/04/08 00:00:40;;;;;;;;;;;8.80;98.50;;;;;;4993974;28;20491;-60
2023/04/08 00:03:06;;;;;;;;;;;8.70;99.40;;;;;;4994054;28;20078;-60
2023/04/08 00:05:32;;;;;;;;;;;8.70;99.90;;;;;;4993873;28;19994;-62
2023/04/08 00:07:57;;;;;;;;;;;8.60;99.90;;;;;;4993862;28;20025;-60
2023/04/08 00:10:25;;;;;;;;;;;8.70;99.90;;;;;;4993816;28;20475;-63
2023/04/08 00:12:50;;;;;;;;;;;8.70;99.90;;;;;;4993798;28;20014;-61
2023/04/08 00:15:16;;;;;;;;;;;8.70;99.90;;;;;;4993753;28;19979;-62
2023/04/08 00:17:41;;;;;;;;;;;8.80;99.90;;;;;;4993734;28;19985;-62
2023/04/08 00:20:07;;;;;;;;;;;8.80;99.90;;;;;;4994394;28;19990;-63
2023/04/08 00:22:33;;;;;;;;;;;8.70;99.90;;;;;;4993876;28;19979;-62
2023/04/08 00:24:58;;;;;;;;;;;8.70;99.90;;;;;;4993653;28;20500;-63
2023/04/08 00:27:24;;;;;;;;;;;8.60;99.90;;;;;;4996227;28;19978;-60
2023/04/08 00:29:50;;;;;;;;;;;8.40;99.90;;;;;;4997032;28;20381;-60
2023/04/08 00:32:15;;;;;;;;;;;8.30;99.90;;;;;;4997516;28;19983;-61
2023/04/08 00:34:42;;;;;;;;;;;8.30;99.90;;;;;;4997544;28;19982;-62
2023/04/08 00:37:07;;;;;;;;;;;8.30;99.90;;;;;;4997474;28;20487;-62
2023/04/08 00:39:33;;;;;;;;;;;8.30;99.90;;;;;;4997403;28;20037;-61
2023/04/08 00:42:00;;;;;;;;;;;8.30;99.90;;;;;;4997092;28;20334;-62
2023/04/08 00:44:26;;;;;;;;;;;8.40;99.90;;;;;;4996982;28;19985;-62
2023/04/08 00:46:52;;;;;;;;;;;8.40;99.90;;;;;;4997254;28;19987;-63
2023/04/08 00:49:18;;;;;;;;;;;8.40;99.90;;;;;;4996841;28;20392;-62
2023/04/08 00:51:43;;;;;;;;;;;8.50;99.90;;;;;;4997029;28;19983;-62
2023/04/08 00:54:09;;;;;;;;;;;8.40;99.90;;;;;;4996910;28;20412;-60
2023/04/08 00:56:34;;;;;;;;;;;8.40;99.90;;;;;;4996691;28;20048;-62
2023/04/08 00:59:01;;;;;;;;;;;8.30;99.90;;;;;;4996554;28;20056;-63
2023/04/08 01:01:35;;;;;;;;;;;8.20;99.90;;;;;;4996721;28;20066;-61
2023/04/08 01:04:08;;;;;;;;;;;8.20;99.90;;;;;;4996697;28;19986;-61
2023/04/08 01:06:52;;;;;;;;;;;8.20;99.90;;;;;;4996620;28;19994;-60
2023/04/08 01:09:20;;;;;;;;;;;8.10;99.90;;;;;;4996650;28;19987;-63
2023/04/08 01:11:48;;;;;;;;;;;8.20;99.90;;;;;;4996627;28;20025;-62
2023/04/08 01:14:16;;;;;;;;;;;8.20;99.90;;;;;;4996312;28;19978;-60
2023/04/08 01:16:42;;;;;;;;;;;8.10;99.90;;;;;;4996560;28;19988;-61
2023/04/08 01:19:12;;;;;;;;;;;8.20;99.90;;;;;;4996696;28;20009;-61
2023/04/08 01:21:38;;;;;;;;;;;8.20;99.90;;;;;;4996230;28;20036;-63
2023/04/08 01:24:09;;;;;;;;;;;8.20;99.90;;;;;;4996353;28;19982;-62
2023/04/08 01:26:35;;;;;;;;;;;8.10;99.90;;;;;;4996284;28;20029;-61
2023/04/08 01:29:01;;;;;;;;;;;8.20;99.90;;;;;;4996093;28;19979;-63
2023/04/08 01:31:27;;;;;;;;;;;8.20;99.90;;;;;;4996229;28;20449;-61
2023/04/08 01:33:54;;;;;;;;;;;8.20;99.90;;;;;;4996452;28;19983;-63
2023/04/08 01:36:20;;;;;;;;;;;8.10;99.90;;;;;;4996102;28;19982;-61
2023/04/08 01:38:47;;;;;;;;;;;8.00;99.90;;;;;;4994948;28;20029;-61
2023/04/08 01:41:12;;;;;;;;;;;7.90;99.90;;;;;;4996081;28;19982;-62
2023/04/08 01:43:39;;;;;;;;;;;7.80;99.90;;;;;;4996161;28;19993;-61
2023/04/08 01:46:05;;;;;;;;;;;7.70;99.90;;;;;;4995865;28;19979;-62
2023/04/08 01:48:31;;;;;;;;;;;7.60;99.90;;;;;;4996550;28;19979;-62
2023/04/08 01:50:57;;;;;;;;;;;7.40;99.90;;;;;;4996057;28;20361;-62
2023/04/08 01:53:23;;;;;;;;;;;7.30;99.90;;;;;;4995714;28;20025;-61
2023/04/08 01:55:53;;;;;;;;;;;7.30;99.90;;;;;;4995595;28;19987;-62
2023/04/08 01:58:20;;;;;;;;;;;7.30;99.90;;;;;;4995981;28;20318;-61
2023/04/08 02:00:46;;;;;;;;;;;7.20;99.90;;;;;;4995547;28;20426;-61
2023/04/08 02:03:12;;;;;;;;;;;7.20;99.90;;;;;;4995579;28;19986;-60
2023/04/08 02:05:38;;;;;;;;;;;7.30;99.90;;;;;;4995477;28;20034;-60
2023/04/08 02:08:04;;;;;;;;;;;7.30;99.90;;;;;;4995426;28;19979;-61
2023/04/08 02:10:29;;;;;;;;;;;7.30;99.90;;;;;;4995165;28;20009;-62
2023/04/08 02:12:55;;;;;;;;;;;7.30;99.90;;;;;;4995314;28;20021;-63
2023/04/08 02:15:20;;;;;;;;;;;7.30;99.90;;;;;;4995341;28;19978;-61
2023/04/08 02:17:48;;;;;;;;;;;7.40;99.90;;;;;;4995386;28;20005;-62
2023/04/08 02:20:37;;;;;;;;;;;7.30;99.90;;;;;;4995370;28;19978;-62
2023/04/08 02:23:13;;;;;;;;;;;7.30;99.90;;;;;;4992248;28;20078;-62
2023/04/08 02:25:41;;;;;;;;;;;7.30;99.90;;;;;;4994942;28;20445;-62
2023/04/08 02:28:09;;;;;;;;;;;7.30;99.90;;;;;;4995042;28;19990;-61
2023/04/08 02:30:36;;;;;;;;;;;7.20;99.90;;;;;;4995131;28;20002;-61
2023/04/08 02:33:04;;;;;;;;;;;7.30;99.90;;;;;;4995043;28;19986;-61
2023/04/08 02:35:30;;;;;;;;;;;7.50;99.90;;;;;;4994914;28;19979;-59
2023/04/08 02:37:56;;;;;;;;;;;7.70;99.90;;;;;;4994959;28;20389;-60
2023/04/08 02:40:30;;;;;;;;;;;7.70;99.90;;;;;;4994836;28;20021;-60
2023/04/08 02:42:56;;;;;;;;;;;7.70;99.90;;;;;;4994832;28;19978;-62
2023/04/08 02:45:22;;;;;;;;;;;7.70;99.90;;;;;;4994933;28;19979;-61
2023/04/08 02:47:48;;;;;;;;;;;7.80;99.90;;;;;;4995070;28;19986;-61
2023/04/08 02:50:14;;;;;;;;;;;7.80;99.90;;;;;;4994275;28;20028;-62
2023/04/08 02:52:40;;;;;;;;;;;7.90;99.90;;;;;;4994817;28;19978;-62
2023/04/08 02:55:08;;;;;;;;;;;7.90;99.90;;;;;;4994761;28;20354;-60
2023/04/08 02:57:35;;;;;;;;;;;7.90;99.90;;;;;;4994566;28;19983;-60
2023/04/08 03:00:02;;;;;;;;;;;7.90;99.90;;;;;;4994846;28;19979;-63
2023/04/08 03:02:28;;;;;;;;;;;7.90;99.90;;;;;;4994520;28;20046;-62
2023/04/08 03:04:54;;;;;;;;;;;7.90;99.90;;;;;;4994476;28;20029;-63
2023/04/08 03:07:19;;;;;;;;;;;7.90;99.90;;;;;;4994568;28;19994;-63
2023/04/08 03:09:45;;;;;;;;;;;7.90;99.90;;;;;;4994415;28;20386;-61
2023/04/08 03:12:10;;;;;;;;;;;7.90;99.90;;;;;;4994144;28;20026;-60
2023/04/08 03:14:36;;;;;;;;;;;7.90;99.90;;;;;;4994734;28;19983;-60
2023/04/08 03:17:01;;;;;;;;;;;7.90;99.90;;;;;;4994481;28;20072;-60
2023/04/08 03:19:27;;;;;;;;;;;7.80;99.90;;;;;;4994638;28;20037;-62
2023/04/08 03:21:53;;;;;;;;;;;7.80;99.90;;;;;;4994275;28;19979;-63
2023/04/08 03:24:18;;;;;;;;;;;7.80;99.90;;;;;;4994127;28;20427;-60
2023/04/08 03:26:44;;;;;;;;;;;7.70;99.90;;;;;;4994616;28;20445;-61
2023/04/08 03:29:09;;;;;;;;;;;7.80;99.90;;;;;;4994146;28;20326;-61
2023/04/08 03:31:35;;;;;;;;;;;7.80;99.90;;;;;;4994211;28;20358;-63
2023/04/08 03:34:00;;;;;;;;;;;7.90;99.90;;;;;;4994288;28;19979;-62
2023/04/08 03:36:26;;;;;;;;;;;7.90;99.90;;;;;;4994166;28;19979;-62
2023/04/08 03:38:51;;;;;;;;;;;7.80;99.90;;;;;;4994083;28;19979;-62
2023/04/08 03:41:17;;;;;;;;;;;7.80;99.90;;;;;;4994287;28;19979;-61
2023/04/08 03:43:43;;;;;;;;;;;7.80;99.90;;;;;;4994065;28;19979;-60
2023/04/08 03:46:08;;;;;;;;;;;7.80;99.90;;;;;;4994261;28;20515;-62
2023/04/08 03:48:34;;;;;;;;;;;7.80;99.90;;;;;;4994413;28;19989;-60
2023/04/08 03:50:59;;;;;;;;;;;7.70;99.90;;;;;;4994029;28;20540;-63
2023/04/08 03:53:28;;;;;;;;;;;7.60;99.90;;;;;;4993889;28;20429;-61
2023/04/08 03:55:54;;;;;;;;;;;7.60;99.90;;;;;;4994100;28;20006;-62
2023/04/08 03:58:19;;;;;;;;;;;7.60;99.90;;;;;;4994268;28;20037;-60
2023/04/08 04:00:45;;;;;;;;;;;7.60;99.90;;;;;;4993986;28;19978;-62
2023/04/08 04:03:11;;;;;;;;;;;7.70;99.90;;;;;;4998010;28;19994;-61
2023/04/08 04:05:37;;;;;;;;;;;7.60;99.90;;;;;;4997756;28;20350;-62
2023/04/08 04:08:03;;;;;;;;;;;7.60;99.90;;;;;;4997471;28;20116;-63
2023/04/08 04:10:29;;;;;;;;;;;7.50;99.90;;;;;;4997773;28;20003;-61
2023/04/08 04:12:54;;;;;;;;;;;7.40;99.90;;;;;;4997540;28;20021;-62
2023/04/08 04:15:20;;;;;;;;;;;7.20;99.90;;;;;;4997528;28;20349;-61
2023/04/08 04:17:49;;;;;;;;;;;7.00;99.90;;;;;;4997711;28;20028;-61
2023/04/08 04:20:16;;;;;;;;;;;7.10;99.90;;;;;;4997879;28;20433;-63
2023/04/08 04:22:41;;;;;;;;;;;7.00;99.90;;;;;;4997489;28;19989;-64
2023/04/08 04:25:07;;;;;;;;;;;7.00;99.90;;;;;;4997557;28;20361;-62
2023/04/08 04:27:33;;;;;;;;;;;7.10;99.90;;;;;;4997400;28;20122;-62
2023/04/08 04:29:59;;;;;;;;;;;7.10;99.90;;;;;;4997318;28;20077;-63
2023/04/08 04:32:25;;;;;;;;;;;7.00;99.90;;;;;;4997516;28;19983;-61
2023/04/08 04:34:50;;;;;;;;;;;7.10;99.90;;;;;;4997323;28;19990;-60
2023/04/08 04:37:16;;;;;;;;;;;7.20;99.90;;;;;;4997043;28;19978;-61
2023/04/08 04:39:42;;;;;;;;;;;7.10;99.90;;;;;;4997049;28;20337;-62
2023/04/08 04:42:07;;;;;;;;;;;7.10;99.90;;;;;;4997223;28;19983;-60
2023/04/08 04:44:33;;;;;;;;;;;7.20;99.90;;;;;;4997150;28;19979;-63
2023/04/08 04:46:58;;;;;;;;;;;7.40;99.90;;;;;;4997264;28;19993;-60
2023/04/08 04:49:24;;;;;;;;;;;7.40;99.90;;;;;;4997049;28;20421;-60
2023/04/08 04:51:50;;;;;;;;;;;7.50;99.90;;;;;;4996819;28;20344;-63
2023/04/08 04:54:16;;;;;;;;;;;7.60;99.90;;;;;;4997098;28;19989;-62
2023/04/08 04:56:41;;;;;;;;;;;7.70;99.90;;;;;;4996953;28;19990;-61
2023/04/08 04:59:07;;;;;;;;;;;7.70;99.90;;;;;;4996930;28;19983;-61
2023/04/08 05:01:33;;;;;;;;;;;7.70;99.90;;;;;;4996779;28;19979;-61
2023/04/08 05:03:58;;;;;;;;;;;7.70;99.90;;;;;;4996882;28;19993;-61
2023/04/08 05:06:25;;;;;;;;;;;7.70;99.90;;;;;;4996671;28;19998;-63
2023/04/08 05:08:51;;;;;;;;;;;7.60;99.90;;;;;;4996909;28;20106;-61
2023/04/08 05:11:20;;;;;;;;;;;7.60;99.90;;;;;;4996488;28;20493;-63
2023/04/08 05:13:46;;;;;;;;;;;7.70;99.90;;;;;;4996308;28;20073;-62
2023/04/08 05:16:12;;;;;;;;;;;7.80;99.90;;;;;;4996564;28;20504;-63
2023/04/08 05:18:38;;;;;;;;;;;7.90;99.90;;;;;;4996420;28;20151;-62
2023/04/08 05:21:03;;;;;;;;;;;8.10;99.90;;;;;;4996165;28;19989;-62
2023/04/08 05:23:29;;;;;;;;;;;8.20;99.90;;;;;;4996426;28;19986;-62
2023/04/08 05:25:55;;;;;;;;;;;8.20;99.90;;;;;;4996288;28;20067;-61
2023/04/08 05:28:20;;;;;;;;;;;8.30;99.90;;;;;;4996249;28;19978;-62
2023/04/08 05:30:50;;;;;;;;;;;8.20;99.90;;;;;;4996225;28;20368;-61
2023/04/08 05:33:15;;;;;;;;;;;8.10;99.90;;;;;;4996185;28;19979;-61
2023/04/08 05:35:41;;;;;;;;;;;8.10;99.90;;;;;;4995987;28;20081;-62
2023/04/08 05:38:06;;;;;;;;;;;8.20;99.90;;;;;;4996405;28;19982;-61
2023/04/08 05:40:32;;;;;;;;;;;8.20;99.90;;;;;;4996070;28;20353;-62
2023/04/08 05:42:57;;;;;;;;;;;8.30;99.90;;;;;;4996319;28;19996;-61
2023/04/08 05:45:23;;;;;;;;;;;8.30;99.90;;;;;;4996092;28;20437;-63
2023/04/08 05:47:48;;;;;;;;;;;8.40;99.90;;;;;;4995766;28;20379;-60
2023/04/08 05:50:14;;;;;;;;;;;8.50;99.90;;;;;;4995729;28;20003;-63
2023/04/08 05:52:46;;;;;;;;;;;8.50;99.90;;;;;;4995758;28;20080;-63
2023/04/08 05:55:12;;;;;;;;;;;8.60;99.90;;;;;;4995789;28;19983;-63
2023/04/08 05:57:37;;;;;;;;;;;8.60;99.90;;;;;;4996190;28;19989;-62
2023/04/08 06:00:07;;;;;;;;;;;8.60;99.90;;;;;;4995670;28;19982;-64
2023/04/08 06:02:33;;;;;;;;;;;8.60;99.90;;;;;;4995439;28;19986;-61
2023/04/08 06:04:59;;;;;;;;;;;8.60;99.90;;;;;;4995553;28;20460;-63
2023/04/08 06:07:24;;;;;;;;;;;8.60;99.90;;;;;;4995528;28;19995;-61
2023/04/08 06:09:50;;;;;;;;;;;8.70;99.90;;;;;;4995387;28;20537;-62
2023/04/08 06:12:15;;;;;;;;;;;8.80;99.90;;;;;;4995405;28;20014;-63
2023/04/08 06:14:41;;;;;;;;;;;8.90;99.90;;;;;;4995353;28;20125;-61
2023/04/08 06:17:06;;;;;;;;;;;8.90;99.90;;;;;;4995459;28;20065;-61
2023/04/08 06:19:32;;;;;;;;;;;9.00;99.90;;;;;;4994987;28;20001;-62
2023/04/08 06:21:58;;;;;;;;;;;9.00;99.90;;;;;;4995311;28;20050;-60
2023/04/08 06:24:25;;;;;;;;;;;9.00;99.90;;;;;;4994775;28;19983;-63
2023/04/08 06:26:51;;;;;;;;;;;9.00;99.90;;;;;;4995179;28;20026;-61
2023/04/08 06:29:17;;;;;;;;;;;9.00;99.90;;;;;;4995114;28;19993;-62
2023/04/08 06:31:42;;;;;;;;;;;8.90;99.90;;;;;;4994789;28;20096;-62
2023/04/08 06:34:08;;;;;;;;;;;8.80;99.90;;;;;;4995072;28;20426;-63
2023/04/08 06:36:34;;;;;;;;;;;8.70;99.90;;;;;;4994913;28;20343;-63
2023/04/08 06:38:59;;;;;;;;;;;8.60;99.90;;;;;;4994975;28;20029;-63
2023/04/08 06:41:25;;;;;;;;;;;8.70;99.90;;;;;;4995005;28;19983;-62
2023/04/08 06:43:50;;;;;;;;;;;8.70;99.90;;;;;;4995072;28;19983;-63
2023/04/08 06:46:16;;;;;;;;;;;8.70;99.90;;;;;;4994649;28;20069;-60
2023/04/08 06:48:41;;;;;;;;;;;8.70;99.90;;;;;;4995057;28;19990;-62
2023/04/08 06:51:07;;;;;;;;;;;8.80;99.90;;;;;;4994663;28;20416;-61
2023/04/08 06:53:32;;;;;;;;;;;8.80;99.90;;;;;;4994650;28;20463;-60
2023/04/08 06:55:58;;;;;;;;;;;9.00;99.90;;;;;;4993477;28;20365;-61
2023/04/08 06:58:24;;;;;;;;;;;9.10;99.90;;;;;;4994687;28;20349;-62
2023/04/08 07:00:50;;;;;;;;;;;9.20;99.90;;;;;;4994631;28;19993;-61
2023/04/08 07:03:16;;;;;;;;;;;9.40;99.90;;;;;;4994606;28;20412;-60
2023/04/08 07:05:41;;;;;;;;;;;9.40;99.90;;;;;;4994560;28;20001;-61
2023/04/08 07:08:07;;;;;;;;;;;9.50;99.90;;;;;;4994343;28;20077;-62
2023/04/08 07:10:35;;;;;;;;;;;9.50;99.80;;;;;;4994442;28;20182;-62
2023/04/08 07:13:01;;;;;;;;;;;9.50;99.40;;;;;;4994351;28;20043;-62
2023/04/08 07:15:26;;;;;;;;;;;9.50;99.90;;;;;;4994147;28;19978;-62
2023/04/08 07:17:55;;;;;;;;;;;9.80;99.20;;;;;;4994403;28;19986;-62
2023/04/08 07:20:21;;;;;;;;;;;10.10;98.70;;;;;;4994832;28;19982;-63
2023/04/08 07:22:47;;;;;;;;;;;10.30;99.00;;;;;;4994556;28;19983;-62
2023/04/08 07:25:13;;;;;;;;;;;10.50;98.00;;;;;;4994705;28;20054;-62
2023/04/08 07:27:38;;;;;;;;;;;10.70;96.60;;;;;;4994335;28;20429;-62
2023/04/08 07:30:04;;;;;;;;;;;10.80;92.80;;;;;;4994002;28;20003;-60
2023/04/08 07:32:31;;;;;;;;;;;11.20;93.40;;;;;;4994540;28;20006;-61
2023/04/08 07:34:57;;;;;;;;;;;11.30;92.20;;;;;;4994277;28;20002;-63
2023/04/08 07:37:23;;;;;;;;;;;11.40;91.20;;;;;;4996804;28;19979;-63
2023/04/08 07:39:48;;;;;;;;;;;11.50;91.50;;;;;;4998412;28;19983;-63
2023/04/08 07:42:14;;;;;;;;;;;11.60;91.50;;;;;;4998336;28;19979;-62
2023/04/08 07:44:40;;;;;;;;;;;11.60;80.10;;;;;;4998117;28;20077;-63
2023/04/08 07:47:06;;;;;;;;;;;11.60;78.70;;;;;;4996859;28;20022;-60
2023/04/08 07:49:31;;;;;;;;;;;11.60;74.60;;;;;;4998239;28;19979;-62
2023/04/08 07:51:57;;;;;;;;;;;11.50;75.60;;;;;;4998136;28;19987;-61
2023/04/08 07:54:22;;;;;;;;;;;11.70;74.30;;;;;;4997917;28;20014;-61
2023/04/08 07:56:48;;;;;;;;;;;11.90;72.40;;;;;;4998182;28;19983;-63
2023/04/08 07:59:14;;;;;;;;;;;12.00;70.00;;;;;;4997697;28;19982;-61
2023/04/08 08:01:39;;;;;;;;;;;12.20;73.00;;;;;;4996607;28;19982;-61
2023/04/08 08:04:05;;;;;;;;;;;12.30;66.50;;;;;;4997995;28;20021;-63
2023/04/08 08:06:33;;;;;;;;;;;12.30;67.80;;;;;;4997754;28;19994;-63
2023/04/08 08:08:59;;;;;;;;;;;12.20;69.80;;;;;;4997643;28;19989;-61
2023/04/08 08:11:26;;;;;;;;;;;12.40;66.80;;;;;;4997787;28;20002;-61
2023/04/08 08:13:52;;;;;;;;;;;12.50;69.70;;;;;;4997344;28;20082;-62
2023/04/08 08:16:18;;;;;;;;;;;12.70;66.30;;;;;;4997884;28;19997;-63
2023/04/08 08:18:43;;;;;;;;;;;12.90;63.20;;;;;;4997637;28;20418;-62
2023/04/08 08:21:09;;;;;;;;;;;13.00;62.60;;;;;;4997558;28;19986;-63
2023/04/08 08:23:34;;;;;;;;;;;13.10;61.90;;;;;;4997582;28;19979;-63
2023/04/08 08:26:01;;;;;;;;;;;13.00;62.00;;;;;;4997392;28;20338;-63
2023/04/08 08:28:27;;;;;;;;;;;12.90;65.00;;;;;;4997218;28;19982;-64
2023/04/08 08:30:52;;;;;;;;;;;12.80;65.70;;;;;;4997584;28;20006;-63
2023/04/08 08:33:18;;;;;;;;;;;12.80;65.00;;;;;;4997237;28;19982;-60
2023/04/08 08:35:43;;;;;;;;;;;12.80;64.50;;;;;;4997422;28;20098;-63
2023/04/08 08:38:09;;;;;;;;;;;12.80;60.90;;;;;;4997304;28;19978;-62
2023/04/08 08:40:35;;;;;;;;;;;13.00;61.30;;;;;;4997123;28;20475;-63
2023/04/08 08:43:00;;;;;;;;;;;13.00;64.30;;;;;;4997199;28;19978;-61
2023/04/08 08:45:26;;;;;;;;;;;13.00;63.90;;;;;;4997204;28;19978;-61
2023/04/08 08:47:52;;;;;;;;;;;13.80;62.80;;;;;;4996447;28;20434;-60
2023/04/08 08:50:18;;;;;;;;;;;14.10;58.80;;;;;;4997216;28;20046;-62
2023/04/08 08:52:47;;;;;;;;;;;14.10;60.90;;;;;;4997072;28;19979;-63
2023/04/08 08:55:13;;;;;;;;;;;14.10;61.90;;;;;;4997198;28;19983;-61
2023/04/08 08:57:38;;;;;;;;;;;14.20;57.20;;;;;;4997038;28;19987;-61
2023/04/08 09:00:04;;;;;;;;;;;14.30;56.20;;;;;;4996824;28;20357;-62
2023/04/08 09:02:30;;;;;;;;;;;14.20;58.70;;;;;;4996709;28;19983;-62
2023/04/08 09:04:56;;;;;;;;;;;14.00;56.90;;;;;;4996648;28;19986;-61
2023/04/08 09:07:23;;;;;;;;;;;13.90;55.40;;;;;;4996974;28;20008;-63
2023/04/08 09:09:50;;;;;;;;;;;14.10;54.60;;;;;;4996660;28;20069;-63
2023/04/08 09:12:15;;;;;;;;;;;14.20;56.50;;;;;;4996234;28;20488;-63
2023/04/08 09:14:41;;;;;;;;;;;14.50;53.80;;;;;;4996573;28;20072;-60
2023/04/08 09:17:07;;;;;;;;;;;14.80;54.40;;;;;;4996620;28;20429;-61
2023/04/08 09:19:32;;;;;;;;;;;14.90;53.50;;;;;;4996440;28;20025;-63
2023/04/08 09:22:05;;;;;;;;;;;15.00;52.70;;;;;;4996371;28;19982;-63
2023/04/08 09:24:31;;;;;;;;;;;15.00;53.70;;;;;;4996410;28;19998;-61
2023/04/08 09:26:56;;;;;;;;;;;15.10;54.00;;;;;;4996071;28;19978;-63
2023/04/08 09:29:22;;;;;;;;;;;14.90;56.00;;;;;;4996401;28;19985;-63
2023/04/08 09:31:52;;;;;;;;;;;15.00;54.30;;;;;;4996062;28;20101;-62
2023/04/08 09:34:22;;;;;;;;;;;15.20;53.90;;;;;;4996400;28;19989;-62
2023/04/08 09:36:51;;;;;;;;;;;15.30;55.70;;;;;;4996439;28;19983;-63
2023/04/08 09:39:16;;;;;;;;;;;15.50;52.00;;;;;;4996415;28;19990;-61
2023/04/08 09:41:42;;;;;;;;;;;15.60;51.70;;;;;;4995869;28;19979;-61
2023/04/08 09:44:09;;;;;;;;;;;15.60;52.00;;;;;;4995949;28;19987;-62
2023/04/08 09:46:37;;;;;;;;;;;15.60;50.90;;;;;;4996277;28;20073;-62
2023/04/08 09:49:09;;;;;;;;;;;15.70;50.70;;;;;;4995848;28;19979;-61
2023/04/08 09:51:41;;;;;;;;;;;15.70;53.00;;;;;;4995766;28;20053;-63
2023/04/08 09:54:11;;;;;;;;;;;15.80;52.90;;;;;;4995743;28;20392;-63
2023/04/08 09:56:40;;;;;;;;;;;16.00;52.30;;;;;;4995702;28;19983;-61
2023/04/08 09:59:16;;;;;;;;;;;15.80;52.20;;;;;;4994885;28;20322;-61
2023/04/08 10:01:49;;;;;;;;;;;16.00;54.20;;;;;;4995921;28;20120;-62
2023/04/08 10:04:19;;;;;;;;;;;16.30;54.70;;;;;;4995675;28;19993;-63
2023/04/08 10:06:47;;;;;;;;;;;16.70;51.00;;;;;;4995514;28;20006;-63
2023/04/08 10:09:13;;;;;;;;;;;16.80;53.80;;;;;;4995308;28;20026;-62
2023/04/08 10:11:39;;;;;;;;;;;16.80;51.90;;;;;;4995640;28;20104;-61
2023/04/08 10:14:04;;;;;;;;;;;17.00;48.00;;;;;;4995273;28;20018;-62
2023/04/08 10:16:30;;;;;;;;;;;17.20;49.20;;;;;;4995325;28;20098;-63
2023/04/08 10:18:56;;;;;;;;;;;17.00;48.80;;;;;;4995488;28;19979;-62
2023/04/08 10:21:31;;;;;;;;;;;17.00;47.20;;;;;;4995368;28;20065;-61
2023/04/08 10:24:05;;;;;;;;;;;16.60;47.10;;;;;;4995315;28;20033;-62
2023/04/08 10:26:35;;;;;;;;;;;16.60;48.60;;;;;;4995169;28;19983;-61
2023/04/08 10:29:23;;;;;;;;;;;17.30;49.00;;;;;;4995202;28;20388;-62
2023/04/08 10:31:50;;;;;;;;;;;17.30;46.40;;;;;;4991952;28;20507;-60
2023/04/08 10:34:16;;;;;;;;;;;16.90;49.70;;;;;;4994968;28;19989;-61
2023/04/08 10:36:43;;;;;;;;;;;17.00;45.50;;;;;;4995003;28;20029;-62
2023/04/08 10:39:08;;;;;;;;;;;16.80;47.00;;;;;;4995103;28;20033;-62
2023/04/08 10:41:34;;;;;;;;;;;16.30;47.20;;;;;;4995169;28;19983;-63
2023/04/08 10:44:03;;;;;;;;;;;15.80;48.80;;;;;;4994856;28;20030;-63
2023/04/08 10:46:36;;;;;;;;;;;15.70;48.90;;;;;;4995178;28;19993;-62
2023/04/08 10:49:02;;;;;;;;;;;15.80;50.20;;;;;;4994995;28;20005;-61
2023/04/08 10:51:31;;;;;;;;;;;15.90;51.60;;;;;;4994662;28;20449;-62
2023/04/08 10:54:04;;;;;;;;;;;15.90;51.90;;;;;;4994570;28;20393;-60
2023/04/08 10:56:29;;;;;;;;;;;16.00;52.50;;;;;;4994905;28;19986;-62
2023/04/08 10:58:55;;;;;;;;;;;16.20;51.80;;;;;;4994591;28;19979;-61
2023/04/08 11:01:21;;;;;;;;;;;16.40;50.20;;;;;;4994677;28;20025;-63
2023/04/08 11:03:47;;;;;;;;;;;16.60;51.30;;;;;;4994710;28;19982;-60
2023/04/08 11:06:12;;;;;;;;;;;16.40;52.80;;;;;;4994814;28;19998;-60
2023/04/08 11:08:38;;;;;;;;;;;16.20;49.40;;;;;;4994330;28;19986;-61
2023/04/08 11:11:10;;;;;;;;;;;16.10;49.50;;;;;;4994267;28;20053;-63
2023/04/08 11:13:36;;;;;;;;;;;16.10;49.50;;;;;;4994280;28;20492;-60
2023/04/08 11:16:03;;;;;;;;;;;16.30;49.80;;;;;;4994494;28;20425;-60
2023/04/08 11:18:33;;;;;;;;;;;16.30;48.50;;;;;;4994357;28;19989;-61
2023/04/08 11:20:59;;;;;;;;;;;16.00;49.20;;;;;;4994325;28;19997;-60
2023/04/08 11:23:25;;;;;;;;;;;15.40;49.40;;;;;;4994122;28;19979;-60
2023/04/08 11:25:51;;;;;;;;;;;15.40;51.90;;;;;;4994219;28;20069;-61
2023/04/08 11:28:17;;;;;;;;;;;15.50;52.30;;;;;;4994452;28;20441;-61
2023/04/08 11:30:42;;;;;;;;;;;15.70;52.40;;;;;;4994198;28;20007;-61
2023/04/08 11:33:09;;;;;;;;;;;15.80;51.60;;;;;;4994133;28;20468;-61
2023/04/08 11:35:38;;;;;;;;;;;15.80;51.00;;;;;;4994245;28;19994;-62
2023/04/08 11:38:04;;;;;;;;;;;15.90;51.50;;;;;;4994007;28;19979;-60
2023/04/08 11:40:29;;;;;;;;;;;15.80;50.70;;;;;;4994155;28;19983;-62
2023/04/08 11:42:55;;;;;;;;;;;15.70;51.80;;;;;;4994181;28;19983;-63
2023/04/08 11:45:21;;;;;;;;;;;15.70;50.90;;;;;;4994160;28;20022;-61
2023/04/08 11:47:47;;;;;;;;;;;15.70;51.90;;;;;;4994407;28;20351;-61
2023/04/08 11:50:21;;;;;;;;;;;15.80;51.60;;;;;;4994237;28;20007;-63
2023/04/08 11:52:48;;;;;;;;;;;15.90;51.40;;;;;;4994184;28;19982;-61
2023/04/08 11:55:26;;;;;;;;;;;15.90;51.20;;;;;;4994045;28;20433;-62
2023/04/08 11:57:53;;;;;;;;;;;15.90;50.90;;;;;;4994343;28;20025;-62
2023/04/08 12:00:19;;;;;;;;;;;15.90;51.30;;;;;;4994114;28;20022;-60
2023/04/08 12:02:46;;;;;;;;;;;15.90;52.20;;;;;;4994180;28;20401;-61
2023/04/08 12:05:12;;;;;;;;;;;15.90;51.60;;;;;;4993709;28;20082;-61
2023/04/08 12:07:38;;;;;;;;;;;15.90;51.40;;;;;;4994397;28;20097;-62
2023/04/08 12:10:04;;;;;;;;;;;15.90;52.10;;;;;;4994135;28;20093;-62
2023/04/08 12:12:30;;;;;;;;;;;16.10;51.30;;;;;;4993924;28;20081;-63
2023/04/08 12:14:55;;;;;;;;;;;16.10;52.70;;;;;;4993813;28;20437;-62
2023/04/08 12:17:21;;;;;;;;;;;16.20;52.90;;;;;;4994073;28;20077;-61
2023/04/08 12:19:47;;;;;;;;;;;16.30;52.20;;;;;;4993913;28;19986;-61
2023/04/08 12:22:12;;;;;;;;;;;16.50;53.00;;;;;;4994332;28;20448;-61
2023/04/08 12:24:38;;;;;;;;;;;16.70;52.00;;;;;;4997696;28;19993;-61
2023/04/08 12:27:04;;;;;;;;;;;16.80;51.40;;;;;;4997291;28;20462;-61
2023/04/08 12:29:29;;;;;;;;;;;16.90;50.20;;;;;;4997408;28;19979;-62
2023/04/08 12:31:55;;;;;;;;;;;16.90;50.30;;;;;;4997241;28;20009;-61
2023/04/08 12:34:21;;;;;;;;;;;17.00;51.40;;;;;;4997104;28;20061;-62
2023/04/08 12:36:48;;;;;;;;;;;17.30;50.30;;;;;;4997223;28;19979;-63
2023/04/08 12:39:13;;;;;;;;;;;17.40;50.60;;;;;;4997282;28;19985;-62
2023/04/08 12:41:39;;;;;;;;;;;17.40;51.10;;;;;;4997157;28;20077;-61
2023/04/08 12:44:04;;;;;;;;;;;17.40;49.80;;;;;;4997097;28;20426;-61
2023/04/08 12:46:30;;;;;;;;;;;17.30;48.60;;;;;;4997183;28;19982;-61
2023/04/08 12:48:55;;;;;;;;;;;17.20;50.20;;;;;;4996856;28;19984;-62
2023/04/08 12:51:21;;;;;;;;;;;17.60;49.20;;;;;;4996906;28;20049;-64
2023/04/08 12:53:47;;;;;;;;;;;18.40;50.60;;;;;;4997317;28;20010;-62
2023/04/08 12:56:13;;;;;;;;;;;18.90;47.30;;;;;;4996947;28;19987;-61
2023/04/08 12:58:38;;;;;;;;;;;19.10;46.70;;;;;;4996804;28;20045;-60
2023/04/08 13:01:05;;;;;;;;;;;19.30;48.30;;;;;;4996868;28;20073;-61
2023/04/08 13:03:30;;;;;;;;;;;19.10;44.70;;;;;;4996865;28;20006;-61
2023/04/08 13:05:57;;;;;;;;;;;18.80;44.50;;;;;;4996637;28;20048;-60
2023/04/08 13:08:23;;;;;;;;;;;18.40;45.80;;;;;;4996757;28;19979;-63
2023/04/08 13:10:49;;;;;;;;;;;18.10;46.40;;;;;;4996869;28;20518;-61
2023/04/08 13:13:15;;;;;;;;;;;17.70;45.90;;;;;;4996493;28;20014;-62
2023/04/08 13:15:40;;;;;;;;;;;17.70;47.80;;;;;;4996844;28;20077;-62
2023/04/08 13:18:07;;;;;;;;;;;17.70;46.30;;;;;;4996317;28;19998;-62
2023/04/08 13:20:33;;;;;;;;;;;17.70;47.20;;;;;;4996413;28;19985;-61
2023/04/08 13:22:59;;;;;;;;;;;17.80;46.30;;;;;;4996410;28;20022;-62
2023/04/08 13:25:25;;;;;;;;;;;17.60;47.00;;;;;;4993657;28;20349;-60
2023/04/08 13:27:50;;;;;;;;;;;17.60;46.80;;;;;;4991865;28;20089;-60
2023/04/08 13:30:16;;;;;;;;;;;17.50;47.50;;;;;;4996201;28;20453;-62
2023/04/08 13:32:41;;;;;;;;;;;17.40;47.30;;;;;;4996184;28;20400;-61
2023/04/08 13:35:07;;;;;;;;;;;17.50;48.20;;;;;;4996312;28;19979;-60
2023/04/08 13:37:33;;;;;;;;;;;17.30;47.70;;;;;;4996101;28;20018;-61
2023/04/08 13:39:58;;;;;;;;;;;17.20;46.80;;;;;;4996112;28;19985;-60
2023/04/08 13:42:24;;;;;;;;;;;17.00;48.40;;;;;;4996157;28;20028;-61
2023/04/08 13:44:50;;;;;;;;;;;17.00;48.50;;;;;;4996220;28;19983;-62
2023/04/08 13:47:16;;;;;;;;;;;16.90;49.70;;;;;;4994966;28;20389;-60
2023/04/08 13:49:41;;;;;;;;;;;17.00;50.00;;;;;;4995425;28;20515;-62
2023/04/08 13:52:07;;;;;;;;;;;17.10;48.80;;;;;;4995335;28;20006;-61
2023/04/08 13:54:33;;;;;;;;;;;17.30;49.00;;;;;;4995228;28;20364;-59
2023/04/08 13:57:00;;;;;;;;;;;17.50;48.90;;;;;;4995927;28;19982;-62
2023/04/08 13:59:25;;;;;;;;;;;17.50;48.60;;;;;;4995755;28;20377;-63
2023/04/08 14:01:52;;;;;;;;;;;17.50;48.40;;;;;;4994751;28;19983;-60
2023/04/08 14:04:21;;;;;;;;;;;17.50;48.00;;;;;;4995135;28;20428;-62
2023/04/08 14:06:49;;;;;;;;;;;17.70;48.70;;;;;;4995600;28;20001;-63
2023/04/08 14:09:14;;;;;;;;;;;18.00;46.50;;;;;;4995846;28;19986;-64
2023/04/08 14:11:43;;;;;;;;;;;18.10;47.40;;;;;;4995359;28;20424;-63
2023/04/08 14:14:12;;;;;;;;;;;18.00;44.70;;;;;;4995118;28;20017;-63
2023/04/08 14:16:41;;;;;;;;;;;17.50;47.10;;;;;;4995444;28;19987;-62
2023/04/08 14:19:07;;;;;;;;;;;17.50;48.30;;;;;;4995513;28;19986;-60